createdAt,value
2022-09-07T00:00:23.806Z,69.03
2022-09-07T00:02:52.292Z,69.18
2022-09-07T00:05:22.677Z,69.21
2022-09-07T00:07:50.332Z,68.95
2022-09-07T00:10:19.662Z,69.22
2022-09-07T00:12:58.443Z,69.06
2022-09-07T00:15:26.564Z,69.38
2022-09-07T00:17:53.580Z,70.17
2022-09-07T00:20:22.440Z,70.60
2022-09-07T00:22:52.225Z,70.59
2022-09-07T00:25:20.799Z,70.91
2022-09-07T00:27:48.926Z,71.45
2022-09-07T00:30:27.204Z,71.62
2022-09-07T00:32:55.834Z,71.58
2022-09-07T00:35:25.008Z,71.28
2022-09-07T00:37:56.863Z,71.35
2022-09-07T00:40:24.626Z,71.96
2022-09-07T00:42:53.955Z,71.71
2022-09-07T00:45:21.943Z,71.73
2022-09-07T00:48:13.966Z,70.39
2022-09-07T00:50:46.704Z,70.28
2022-09-07T00:53:43.430Z,69.93
2022-09-07T00:56:33.396Z,69.55
2022-09-07T00:59:04.827Z,69.35
2022-09-07T01:01:34.413Z,69.55
2022-09-07T01:04:11.207Z,69.25
2022-09-07T01:06:43.047Z,69.94
2022-09-07T01:09:14.944Z,69.58
2022-09-07T01:11:53.715Z,70.04
2022-09-07T01:14:28.462Z,70.27
2022-09-07T01:17:16.731Z,70.33
2022-09-07T01:20:14.680Z,70.04
2022-09-07T01:23:06.485Z,69.67
2022-09-07T01:25:53.736Z,70.16
2022-09-07T01:28:35.375Z,70.33
2022-09-07T01:31:21.604Z,70.31
2022-09-07T01:34:14.715Z,70.80
2022-09-07T01:37:33.734Z,70.15
2022-09-07T01:40:11.514Z,69.56
2022-09-07T01:43:13.308Z,69.95
2022-09-07T01:45:43.917Z,70.27
2022-09-07T01:48:34.401Z,70.41
2022-09-07T01:51:12.850Z,70.61
2022-09-07T01:53:48.213Z,70.96
2022-09-07T01:56:28.529Z,70.97
2022-09-07T01:59:33.116Z,70.33
2022-09-07T02:02:22.635Z,70.66
2022-09-07T02:05:13.004Z,70.74
2022-09-07T02:07:54.986Z,71.27
2022-09-07T02:11:03.365Z,70.99
2022-09-07T02:13:43.966Z,70.82
2022-09-07T02:16:27.525Z,70.80
2022-09-07T02:19:14.371Z,70.45
2022-09-07T02:21:47.098Z,70.65
2022-09-07T02:24:27.925Z,70.67
2022-09-07T02:27:02.207Z,70.43
2022-09-07T02:29:32.028Z,70.42
2022-09-07T02:32:02.465Z,70.37
2022-09-07T02:34:32.250Z,70.72
2022-09-07T02:37:04.611Z,71.26
2022-09-07T02:39:35.693Z,71.19
2022-09-07T02:42:04.400Z,71.47
2022-09-07T02:44:38.457Z,71.72
2022-09-07T02:47:32.440Z,71.82
2022-09-07T02:50:27.620Z,72.42
2022-09-07T02:53:34.063Z,73.08
2022-09-07T02:56:25.188Z,72.81
2022-09-07T02:59:27.836Z,72.88
2022-09-07T03:02:21.591Z,72.77
2022-09-07T03:05:12.336Z,72.80
2022-09-07T03:07:55.878Z,73.19
2022-09-07T03:10:25.565Z,73.76
2022-09-07T03:12:55.796Z,73.91
2022-09-07T03:15:28.367Z,73.49
2022-09-07T03:17:58.546Z,73.42
2022-09-07T03:20:27.999Z,72.90
2022-09-07T03:23:04.227Z,73.29
2022-09-07T03:25:34.925Z,73.06
2022-09-07T03:28:04.076Z,73.45
2022-09-07T03:30:34.189Z,74.05
2022-09-07T03:33:05.905Z,74.23
2022-09-07T03:35:36.155Z,74.30
2022-09-07T03:38:07.424Z,73.61
2022-09-07T03:40:37.733Z,73.20
2022-09-07T03:43:08.507Z,73.52
2022-09-07T03:45:35.972Z,73.57
2022-09-07T03:48:06.656Z,75.09
2022-09-07T03:50:36.132Z,74.48
2022-09-07T03:53:07.264Z,74.28
2022-09-07T03:55:36.205Z,73.71
2022-09-07T03:58:06.936Z,73.78
2022-09-07T04:00:34.529Z,73.91
2022-09-07T04:03:05.907Z,74.61
2022-09-07T04:05:37.074Z,75.36
2022-09-07T04:08:06.293Z,75.76
2022-09-07T04:10:43.100Z,75.56
2022-09-07T04:13:11.885Z,75.68
2022-09-07T04:15:38.914Z,75.72
2022-09-07T04:18:07.606Z,76.14
2022-09-07T04:20:39.237Z,76.56
2022-09-07T04:23:06.777Z,75.74
2022-09-07T04:25:35.216Z,75.72
2022-09-07T04:28:03.369Z,75.82
2022-09-07T04:30:31.010Z,75.61
2022-09-07T04:32:59.246Z,75.12
2022-09-07T04:35:27.267Z,74.89
2022-09-07T04:37:56.996Z,75.36
2022-09-07T04:40:24.137Z,75.54
2022-09-07T04:42:54.925Z,76.12
2022-09-07T04:45:31.967Z,76.11
2022-09-07T04:48:02.942Z,76.04
2022-09-07T04:50:40.333Z,75.75
2022-09-07T04:53:11.885Z,75.75
2022-09-07T04:55:41.519Z,76.50
2022-09-07T04:58:12.657Z,77.07
2022-09-07T05:00:41.245Z,77.48
2022-09-07T05:03:09.415Z,77.65
2022-09-07T05:05:38.740Z,78.14
2022-09-07T05:08:07.337Z,77.49
2022-09-07T05:10:37.620Z,77.35
2022-09-07T05:13:05.456Z,77.84
2022-09-07T05:15:34.739Z,77.67
2022-09-07T05:18:04.666Z,77.33
2022-09-07T05:20:33.101Z,77.92
2022-09-07T05:23:01.479Z,77.48
2022-09-07T05:25:32.763Z,77.12
2022-09-07T05:28:02.446Z,76.73
2022-09-07T05:33:23.245Z,75.60
2022-09-07T05:36:03.207Z,75.62
2022-09-07T05:38:34.048Z,75.48
2022-09-07T05:41:20.956Z,75.24
2022-09-07T05:46:47.187Z,75.63
2022-09-07T05:49:15.637Z,75.71
2022-09-07T05:51:56.521Z,75.67
2022-09-07T05:54:27.761Z,75.60
2022-09-07T05:56:55.158Z,75.51
2022-09-07T05:59:24.428Z,74.38
2022-09-07T06:01:55.116Z,74.11
2022-09-07T06:04:23.080Z,73.39
2022-09-07T06:07:20.194Z,73.41
2022-09-07T06:12:29.421Z,71.91
2022-09-07T06:15:06.415Z,71.77
2022-09-07T06:17:35.603Z,71.61
2022-09-07T06:20:08.227Z,69.83
2022-09-07T06:22:38.369Z,69.36
2022-09-07T06:25:10.496Z,71.01
2022-09-07T06:27:38.167Z,69.54
2022-09-07T06:30:09.055Z,69.71
2022-09-07T06:32:46.893Z,69.75
2022-09-07T06:35:17.197Z,69.91
2022-09-07T06:37:45.404Z,70.04
2022-09-07T06:40:14.610Z,70.44
2022-09-07T06:42:45.520Z,70.41
2022-09-07T06:45:19.255Z,70.12
2022-09-07T06:47:48.928Z,69.87
2022-09-07T06:50:17.915Z,70.48
2022-09-07T06:55:35.211Z,69.89
2022-09-07T06:58:05.037Z,69.95
2022-09-07T07:00:35.604Z,70.13
2022-09-07T07:03:03.557Z,68.98
2022-09-07T07:05:39.736Z,68.63
2022-09-07T07:08:09.793Z,68.19
2022-09-07T07:10:43.049Z,68.25
2022-09-07T07:13:10.431Z,68.63
2022-09-07T07:15:38.379Z,67.36
2022-09-07T07:18:21.231Z,67.44
2022-09-07T07:20:49.555Z,66.21
2022-09-07T07:23:18.350Z,64.28
2022-09-07T07:25:45.535Z,66.24
2022-09-07T07:42:59.501Z,59.59
2022-09-07T07:48:13.560Z,56.42
2022-09-07T07:50:41.642Z,55.35
2022-09-07T07:55:59.885Z,54.54
2022-09-07T07:58:28.865Z,53.83
2022-09-07T08:01:01.349Z,52.65
2022-09-07T08:03:28.630Z,53.48
2022-09-07T08:05:56.181Z,53.82
2022-09-07T08:08:25.201Z,51.99
2022-09-07T08:10:53.153Z,52.07
2022-09-07T08:13:21.606Z,50.73
2022-09-07T08:15:48.938Z,50.39
2022-09-07T08:18:17.535Z,49.78
2022-09-07T08:20:44.757Z,48.74
2022-09-07T08:23:12.016Z,48.81
2022-09-07T08:25:39.313Z,48.39
2022-09-07T08:28:07.160Z,47.99
2022-09-07T08:30:34.150Z,48.08
2022-09-07T08:33:01.132Z,48.06
2022-09-07T08:35:28.103Z,47.65
2022-09-07T08:37:55.875Z,48.11
2022-09-07T08:40:23.017Z,47.46
2022-09-07T08:42:55.708Z,46.77
2022-09-07T08:45:58.225Z,48.09
2022-09-07T08:48:33.287Z,47.68
2022-09-07T08:51:12.801Z,46.60
2022-09-07T08:53:46.374Z,48.15
2022-09-07T08:56:28.155Z,46.94
2022-09-07T08:59:00.686Z,47.55
2022-09-07T09:01:41.143Z,44.86
2022-09-07T09:04:27.622Z,43.71
2022-09-07T09:07:24.115Z,43.14
2022-09-07T09:10:20.677Z,43.77
2022-09-07T09:13:14.464Z,43.60
2022-09-07T09:16:00.309Z,42.59
2022-09-07T09:18:58.752Z,42.95
2022-09-07T09:21:27.411Z,43.16
2022-09-07T09:24:02.183Z,43.58
2022-09-07T09:26:33.278Z,43.31
2022-09-07T09:29:13.190Z,40.99
2022-09-07T09:31:40.419Z,40.65
2022-09-07T09:34:16.382Z,41.29
2022-09-07T09:36:49.149Z,40.83
2022-09-07T09:39:35.699Z,40.65
2022-09-07T09:42:11.930Z,40.14
2022-09-07T09:44:39.703Z,38.32
2022-09-07T09:49:58.085Z,37.13
2022-09-07T09:52:42.201Z,38.06
2022-09-07T09:55:36.274Z,37.60
2022-09-07T10:01:34.690Z,37.07
2022-09-07T10:04:21.436Z,37.87
2022-09-07T10:06:54.267Z,36.72
2022-09-07T10:09:26.098Z,37.09
2022-09-07T10:12:06.851Z,37.26
2022-09-07T10:14:36.364Z,38.79
2022-09-07T10:17:13.348Z,38.69
2022-09-07T10:19:42.976Z,38.98
2022-09-07T10:22:31.740Z,38.80
2022-09-07T10:25:01.117Z,38.59
2022-09-07T10:27:37.187Z,38.74
2022-09-07T10:30:15.069Z,38.96
2022-09-07T10:33:09.363Z,39.36
2022-09-07T10:35:52.662Z,39.67
2022-09-07T10:38:25.078Z,39.13
2022-09-07T10:41:09.979Z,38.75
2022-09-07T10:43:44.550Z,39.80
2022-09-07T10:46:11.821Z,39.73
2022-09-07T10:48:51.688Z,39.41
2022-09-07T10:51:32.359Z,38.67
2022-09-07T10:57:06.536Z,40.65
2022-09-07T11:00:10.084Z,39.52
2022-09-07T11:05:56.408Z,39.99
2022-09-07T11:14:28.530Z,40.52
2022-09-07T11:17:03.107Z,39.34
2022-09-07T11:19:36.481Z,39.64
2022-09-07T11:22:28.490Z,38.69
2022-09-07T11:27:51.617Z,37.50
2022-09-07T11:30:21.048Z,37.40
2022-09-07T11:33:01.492Z,37.62
2022-09-07T11:35:47.756Z,38.32
2022-09-07T11:38:20.496Z,37.37
2022-09-07T11:41:22.893Z,36.49
2022-09-07T11:43:58.250Z,35.77
2022-09-07T11:46:34.403Z,35.70
2022-09-07T11:49:04.461Z,36.38
2022-09-07T11:51:43.167Z,36.29
2022-09-07T11:54:31.137Z,36.96
2022-09-07T11:57:15.971Z,36.11
2022-09-07T11:59:45.842Z,35.55
2022-09-07T12:02:57.704Z,35.37
2022-09-07T12:05:37.604Z,35.59
2022-09-07T12:08:31.439Z,36.06
2022-09-07T12:11:24.759Z,36.48
2022-09-07T12:14:10.812Z,37.05
2022-09-07T12:16:51.365Z,36.11
2022-09-07T12:19:27.005Z,35.78
2022-09-07T12:21:54.559Z,35.78
2022-09-07T12:24:41.504Z,35.32
2022-09-07T12:27:23.820Z,34.91
2022-09-07T12:29:57.656Z,34.70
2022-09-07T12:32:54.964Z,33.97
2022-09-07T12:35:31.963Z,33.78
2022-09-07T12:38:02.675Z,33.85
2022-09-07T12:40:36.341Z,33.55
2022-09-07T12:43:23.536Z,35.18
2022-09-07T12:45:52.863Z,34.15
2022-09-07T12:48:38.347Z,33.59
2022-09-07T12:54:23.200Z,33.85
2022-09-07T12:59:52.507Z,33.89
2022-09-07T13:02:31.642Z,34.08
2022-09-07T13:05:13.348Z,35.09
2022-09-07T13:08:10.454Z,35.27
2022-09-07T13:10:39.933Z,35.28
2022-09-07T13:13:16.119Z,35.06
2022-09-07T13:15:50.379Z,36.15
2022-09-07T13:18:27.411Z,36.07
2022-09-07T13:21:09.750Z,35.61
2022-09-07T13:23:45.524Z,35.97
2022-09-07T13:26:52.151Z,36.22
2022-09-07T13:29:24.058Z,37.08
2022-09-07T13:32:10.673Z,36.36
2022-09-07T13:34:48.695Z,37.05
2022-09-07T13:37:19.620Z,36.61
2022-09-07T13:39:49.136Z,35.91
2022-09-07T13:42:21.073Z,36.16
2022-09-07T13:44:58.068Z,36.70
2022-09-07T13:47:52.660Z,35.89
2022-09-07T13:50:47.105Z,35.62
2022-09-07T13:54:00.111Z,36.20
2022-09-07T13:56:39.169Z,36.46
2022-09-07T13:59:35.792Z,36.79
2022-09-07T14:02:03.302Z,37.29
2022-09-07T14:04:44.709Z,37.51
2022-09-07T14:07:23.418Z,37.77
2022-09-07T14:10:04.467Z,38.02
2022-09-07T14:12:31.676Z,38.23
2022-09-07T14:15:19.188Z,38.41
2022-09-07T14:17:47.686Z,38.69
2022-09-07T14:20:16.900Z,38.18
2022-09-07T14:22:45.464Z,38.59
2022-09-07T14:25:22.222Z,37.50
2022-09-07T14:27:50.292Z,37.36
2022-09-07T14:30:26.452Z,37.57
2022-09-07T14:32:56.255Z,37.40
2022-09-07T14:35:27.032Z,37.68
2022-09-07T14:37:56.102Z,37.96
2022-09-07T14:40:26.740Z,38.19
2022-09-07T14:42:55.901Z,38.06
2022-09-07T14:45:22.848Z,38.42
2022-09-07T14:47:59.699Z,38.12
2022-09-07T14:50:35.019Z,37.98
2022-09-07T14:56:08.480Z,37.78
2022-09-07T14:58:36.440Z,37.75
2022-09-07T15:04:04.023Z,38.00
2022-09-07T15:09:37.005Z,39.33
2022-09-07T15:12:18.093Z,40.04
2022-09-07T15:14:45.596Z,40.14
2022-09-07T15:20:35.306Z,40.29
2022-09-07T15:23:05.019Z,40.33
2022-09-07T15:25:33.839Z,40.76
2022-09-07T15:28:01.774Z,40.47
2022-09-07T15:30:28.865Z,40.58
2022-09-07T15:32:57.480Z,40.55
2022-09-07T15:35:25.132Z,40.10
2022-09-07T15:38:59.373Z,40.81
2022-09-07T15:41:10.585Z,40.48
2022-09-07T15:43:34.112Z,40.87
2022-09-07T15:46:02.080Z,40.66
2022-09-07T15:48:31.718Z,40.72
2022-09-07T15:57:47.622Z,41.89
2022-09-07T15:59:31.398Z,42.17
2022-09-07T16:01:59.435Z,41.87
2022-09-07T16:04:26.777Z,42.04
2022-09-07T16:06:54.837Z,41.31
2022-09-07T16:09:22.207Z,41.42
2022-09-07T16:11:51.291Z,41.66
2022-09-07T16:14:18.931Z,42.25
2022-09-07T16:19:34.962Z,41.65
2022-09-07T16:22:03.355Z,41.63
2022-09-07T16:24:30.717Z,41.42
2022-09-07T16:26:57.703Z,41.51
2022-09-07T16:29:24.908Z,41.64
2022-09-07T16:34:40.701Z,41.24
2022-09-07T16:37:07.934Z,41.52
2022-09-07T16:39:35.085Z,41.23
2022-09-07T16:42:02.125Z,41.85
2022-09-07T16:44:29.524Z,42.22
2022-09-07T16:46:56.461Z,42.22
2022-09-07T16:49:23.486Z,42.33
2022-09-07T16:51:50.454Z,42.03
2022-09-07T16:54:22.030Z,42.12
2022-09-07T16:56:49.184Z,42.14
2022-09-07T16:59:17.153Z,42.43
2022-09-07T17:01:44.663Z,42.44
2022-09-07T17:04:12.011Z,42.87
2022-09-07T17:06:40.238Z,42.89
2022-09-07T17:09:07.729Z,43.46
2022-09-07T17:11:36.672Z,43.39
2022-09-07T17:14:06.852Z,43.66
2022-09-07T17:16:37.108Z,44.00
2022-09-07T17:21:53.863Z,44.89
2022-09-07T17:24:21.390Z,44.82
2022-09-07T17:26:48.398Z,45.54
2022-09-07T17:29:16.035Z,45.44
2022-09-07T17:34:30.925Z,45.84
2022-09-07T17:37:00.674Z,45.91
2022-09-07T17:39:28.742Z,46.05
2022-09-07T17:41:55.943Z,45.78
2022-09-07T17:44:23.626Z,46.40
2022-09-07T17:46:51.264Z,46.27
2022-09-07T17:49:19.075Z,46.80
2022-09-07T17:51:46.763Z,46.59
2022-09-07T17:54:16.799Z,46.56
2022-09-07T17:56:44.926Z,47.07
2022-09-07T18:02:01.103Z,47.18
2022-09-07T18:04:28.731Z,47.33
2022-09-07T18:06:56.343Z,47.32
2022-09-07T18:09:23.666Z,47.81
2022-09-07T18:11:51.181Z,48.35
2022-09-07T18:14:19.196Z,48.98
2022-09-07T18:16:49.395Z,49.19
2022-09-07T18:19:18.352Z,49.39
2022-09-07T18:21:46.489Z,50.21
2022-09-07T18:24:17.956Z,50.75
2022-09-07T18:26:51.072Z,50.72
2022-09-07T18:29:36.811Z,51.03
2022-09-07T18:32:09.477Z,51.35
2022-09-07T18:34:40.628Z,51.51
2022-09-07T18:37:08.780Z,51.97
2022-09-07T18:39:36.785Z,52.70
2022-09-07T18:42:04.172Z,52.68
2022-09-07T18:47:27.244Z,52.29
2022-09-07T18:49:55.946Z,52.04
2022-09-07T18:55:12.123Z,51.90
2022-09-07T18:57:39.471Z,52.43
2022-09-07T19:00:08.976Z,52.14
2022-09-07T19:02:36.932Z,52.36
2022-09-07T19:07:52.919Z,53.89
2022-09-07T19:10:22.098Z,53.76
2022-09-07T19:12:49.495Z,53.93
2022-09-07T19:15:17.675Z,54.66
2022-09-07T19:17:44.800Z,54.54
2022-09-07T19:20:12.836Z,54.83
2022-09-07T19:22:40.049Z,55.02
2022-09-07T19:25:07.522Z,54.87
2022-09-07T19:27:35.095Z,54.78
2022-09-07T19:30:02.650Z,54.81
2022-09-07T19:32:30.268Z,55.08
2022-09-07T19:34:57.336Z,55.12
2022-09-07T19:37:26.153Z,55.35
2022-09-07T19:39:56.960Z,55.85
2022-09-07T19:42:25.020Z,55.60
2022-09-07T19:44:53.250Z,55.70
2022-09-07T19:47:21.800Z,56.19
2022-09-07T19:49:49.019Z,56.43
2022-09-07T19:52:16.244Z,56.95
2022-09-07T19:54:44.048Z,56.67
2022-09-07T19:57:11.025Z,56.80
2022-09-07T19:59:37.975Z,56.94
2022-09-07T20:02:06.272Z,57.14
2022-09-07T20:04:33.757Z,57.29
2022-09-07T20:07:01.280Z,57.40
2022-09-07T20:09:28.140Z,57.85
2022-09-07T20:11:55.482Z,57.93
2022-09-07T20:14:22.498Z,58.58
2022-09-07T20:16:50.529Z,58.52
2022-09-07T20:19:17.586Z,58.52
2022-09-07T20:21:44.936Z,58.43
2022-09-07T20:24:12.609Z,58.42
2022-09-07T20:26:39.690Z,58.64
2022-09-07T20:31:54.079Z,58.88
2022-09-07T20:34:21.362Z,59.41
2022-09-07T20:36:52.509Z,59.31
2022-09-07T20:39:20.472Z,59.80
2022-09-07T20:41:47.534Z,60.08
2022-09-07T20:44:14.780Z,60.07
2022-09-07T20:46:41.888Z,60.04
2022-09-07T20:49:09.734Z,59.92
2022-09-07T20:51:36.746Z,60.06
2022-09-07T20:54:04.611Z,60.16
2022-09-07T20:56:31.492Z,60.27
2022-09-07T20:59:01.153Z,60.34
2022-09-07T21:01:30.179Z,60.67
2022-09-07T21:03:58.870Z,60.55
2022-09-07T21:06:27.018Z,60.62
2022-09-07T21:08:56.790Z,61.10
2022-09-07T21:11:29.998Z,62.38
2022-09-07T21:14:00.931Z,62.60
2022-09-07T21:16:28.889Z,63.19
2022-09-07T21:18:58.013Z,63.27
2022-09-07T21:21:27.390Z,63.17
2022-09-07T21:23:57.289Z,63.14
2022-09-07T21:26:25.606Z,63.71
2022-09-07T21:28:56.943Z,63.53
2022-09-07T21:31:24.528Z,63.66
2022-09-07T21:33:56.929Z,64.22
2022-09-07T21:36:24.620Z,64.35
2022-09-07T21:38:51.574Z,64.57
2022-09-07T21:41:21.029Z,64.45
2022-09-07T21:43:48.137Z,64.78
2022-09-07T21:46:18.377Z,65.29
2022-09-07T21:48:46.214Z,65.37
2022-09-07T21:51:15.873Z,65.82
2022-09-07T21:53:43.376Z,65.54
2022-09-07T21:56:13.779Z,65.49
2022-09-07T21:58:41.100Z,65.31
2022-09-07T22:01:17.339Z,65.24
2022-09-07T22:03:47.426Z,65.71
2022-09-07T22:06:14.777Z,65.82
2022-09-07T22:08:42.895Z,65.89
2022-09-07T22:11:12.691Z,66.69
2022-09-07T22:13:41.006Z,66.60
2022-09-07T22:16:08.582Z,66.66
2022-09-07T22:18:38.096Z,66.62
2022-09-07T22:21:10.634Z,66.78
2022-09-07T22:23:40.274Z,67.32
2022-09-07T22:26:08.209Z,67.28
2022-09-07T22:28:36.340Z,67.09
2022-09-07T22:31:09.728Z,67.66
2022-09-07T22:33:36.877Z,67.90
2022-09-07T22:36:14.456Z,68.12
2022-09-07T22:38:42.939Z,67.97
2022-09-07T22:41:12.646Z,67.30
2022-09-07T22:43:40.690Z,67.38
2022-09-07T22:46:07.845Z,67.60
2022-09-07T22:48:35.492Z,68.32
2022-09-07T22:51:03.760Z,68.25
2022-09-07T22:53:33.254Z,68.28
2022-09-07T22:56:05.088Z,68.32
2022-09-07T22:58:32.067Z,69.17
2022-09-07T23:00:59.888Z,68.89
2022-09-07T23:03:29.409Z,68.83
2022-09-07T23:05:57.250Z,68.80
2022-09-07T23:08:25.601Z,69.54
2022-09-07T23:10:53.267Z,69.03
2022-09-07T23:13:20.748Z,69.31
2022-09-07T23:15:49.668Z,69.32
2022-09-07T23:18:22.449Z,69.11
2022-09-07T23:20:49.466Z,69.58
2022-09-07T23:23:16.609Z,69.02
2022-09-07T23:25:44.376Z,68.68
2022-09-07T23:28:12.528Z,67.98
2022-09-07T23:30:43.322Z,68.58
2022-09-07T23:33:10.331Z,69.56
2022-09-07T23:35:37.900Z,69.86
2022-09-07T23:40:32.900Z,70.36
2022-09-07T23:43:01.091Z,70.66
2022-09-07T23:45:28.367Z,70.71
2022-09-07T23:47:55.386Z,70.47
2022-09-07T23:50:22.645Z,69.91
2022-09-07T23:52:49.603Z,69.35
2022-09-07T23:55:16.911Z,69.07
2022-09-07T23:57:43.888Z,69.10
